sensor_id;sensor_type;location;lat;lon;timestamp;temperature;humidity
1614;DHT22;800;48.824;9.346;2023-02-08T00:00:31;4.60;47.10
1614;DHT22;800;48.824;9.346;2023-02-08T00:02:57;4.60;47.20
1614;DHT22;800;48.824;9.346;2023-02-08T00:05:23;4.50;47.40
1614;DHT22;800;48.824;9.346;2023-02-08T00:07:48;4.50;47.70
1614;DHT22;800;48.824;9.346;2023-02-08T00:10:14;4.40;48.50
1614;DHT22;800;48.824;9.346;2023-02-08T00:12:39;4.40;48.10
1614;DHT22;800;48.824;9.346;2023-02-08T00:15:05;4.40;48.00
1614;DHT22;800;48.824;9.346;2023-02-08T00:17:31;4.40;48.00
1614;DHT22;800;48.824;9.346;2023-02-08T00:19:56;4.30;47.90
1614;DHT22;800;48.824;9.346;2023-02-08T00:22:22;4.30;47.90
1614;DHT22;800;48.824;9.346;2023-02-08T00:24:49;4.20;47.90
1614;DHT22;800;48.824;9.346;2023-02-08T00:27:16;4.20;47.80
1614;DHT22;800;48.824;9.346;2023-02-08T00:29:41;4.10;47.90
1614;DHT22;800;48.824;9.346;2023-02-08T00:32:07;4.10;48.20
1614;DHT22;800;48.824;9.346;2023-02-08T00:34:32;4.10;48.30
1614;DHT22;800;48.824;9.346;2023-02-08T00:36:59;4.10;48.20
1614;DHT22;800;48.824;9.346;2023-02-08T00:39:26;4.10;48.30
1614;DHT22;800;48.824;9.346;2023-02-08T00:41:52;4.00;48.30
1614;DHT22;800;48.824;9.346;2023-02-08T00:44:17;4.00;48.40
1614;DHT22;800;48.824;9.346;2023-02-08T00:46:43;4.00;48.40
1614;DHT22;800;48.824;9.346;2023-02-08T00:49:09;4.00;48.50
1614;DHT22;800;48.824;9.346;2023-02-08T00:51:34;3.90;48.60
1614;DHT22;800;48.824;9.346;2023-02-08T00:54:00;3.90;48.70
1614;DHT22;800;48.824;9.346;2023-02-08T00:56:25;3.90;48.70
1614;DHT22;800;48.824;9.346;2023-02-08T00:58:51;3.90;48.80
1614;DHT22;800;48.824;9.346;2023-02-08T01:01:17;3.90;48.80
1614;DHT22;800;48.824;9.346;2023-02-08T01:03:43;3.90;48.80
1614;DHT22;800;48.824;9.346;2023-02-08T01:06:15;3.90;48.60
1614;DHT22;800;48.824;9.346;2023-02-08T01:08:40;3.80;48.50
1614;DHT22;800;48.824;9.346;2023-02-08T01:11:10;3.80;48.50
1614;DHT22;800;48.824;9.346;2023-02-08T01:13:37;3.80;48.70
1614;DHT22;800;48.824;9.346;2023-02-08T01:16:27;3.90;48.90
1614;DHT22;800;48.824;9.346;2023-02-08T01:18:56;3.90;48.80
1614;DHT22;800;48.824;9.346;2023-02-08T01:21:25;3.90;48.60
1614;DHT22;800;48.824;9.346;2023-02-08T01:23:51;3.80;48.40
1614;DHT22;800;48.824;9.346;2023-02-08T01:26:18;3.70;48.80
1614;DHT22;800;48.824;9.346;2023-02-08T01:28:44;3.70;48.90
1614;DHT22;800;48.824;9.346;2023-02-08T01:31:28;3.70;49.00
1614;DHT22;800;48.824;9.346;2023-02-08T01:33:56;3.60;48.90
1614;DHT22;800;48.824;9.346;2023-02-08T01:36:22;3.60;49.10
1614;DHT22;800;48.824;9.346;2023-02-08T01:38:48;3.60;49.40
1614;DHT22;800;48.824;9.346;2023-02-08T01:41:35;3.50;49.20
1614;DHT22;800;48.824;9.346;2023-02-08T01:44:07;3.60;49.10
1614;DHT22;800;48.824;9.346;2023-02-08T01:46:38;3.60;49.10
1614;DHT22;800;48.824;9.346;2023-02-08T01:51:50;3.50;49.40
1614;DHT22;800;48.824;9.346;2023-02-08T01:54:19;3.40;49.40
1614;DHT22;800;48.824;9.346;2023-02-08T01:56:46;3.40;49.50
1614;DHT22;800;48.824;9.346;2023-02-08T01:59:22;3.40;49.40
1614;DHT22;800;48.824;9.346;2023-02-08T02:01:50;3.40;49.40
1614;DHT22;800;48.824;9.346;2023-02-08T02:04:16;3.40;49.20
1614;DHT22;800;48.824;9.346;2023-02-08T02:06:48;3.50;49.30
1614;DHT22;800;48.824;9.346;2023-02-08T02:11:53;3.30;49.10
1614;DHT22;800;48.824;9.346;2023-02-08T02:14:20;3.30;49.10
1614;DHT22;800;48.824;9.346;2023-02-08T02:16:46;3.30;49.20
1614;DHT22;800;48.824;9.346;2023-02-08T02:19:20;3.20;49.10
1614;DHT22;800;48.824;9.346;2023-02-08T02:36:17;3.00;49.60
1614;DHT22;800;48.824;9.346;2023-02-08T02:45:09;3.00;49.10
1614;DHT22;800;48.824;9.346;2023-02-08T02:47:53;2.90;48.90
1614;DHT22;800;48.824;9.346;2023-02-08T02:50:31;2.90;48.90
1614;DHT22;800;48.824;9.346;2023-02-08T02:55:41;2.90;48.90
1614;DHT22;800;48.824;9.346;2023-02-08T02:58:10;2.80;48.80
1614;DHT22;800;48.824;9.346;2023-02-08T03:00:36;2.80;48.70
1614;DHT22;800;48.824;9.346;2023-02-08T03:03:02;2.70;48.70
1614;DHT22;800;48.824;9.346;2023-02-08T03:05:28;2.80;48.90
1614;DHT22;800;48.824;9.346;2023-02-08T03:17:09;2.70;49.30
1614;DHT22;800;48.824;9.346;2023-02-08T03:22:37;2.60;49.20
1614;DHT22;800;48.824;9.346;2023-02-08T03:25:16;2.60;49.30
1614;DHT22;800;48.824;9.346;2023-02-08T03:27:51;2.50;49.60
1614;DHT22;800;48.824;9.346;2023-02-08T03:30:44;2.50;49.80
1614;DHT22;800;48.824;9.346;2023-02-08T03:33:22;2.50;49.50
1614;DHT22;800;48.824;9.346;2023-02-08T03:35:53;2.60;49.40
1614;DHT22;800;48.824;9.346;2023-02-08T03:38:38;2.60;49.20
1614;DHT22;800;48.824;9.346;2023-02-08T03:41:06;2.60;49.00
1614;DHT22;800;48.824;9.346;2023-02-08T03:43:39;2.60;48.80
1614;DHT22;800;48.824;9.346;2023-02-08T03:46:20;2.50;48.70
1614;DHT22;800;48.824;9.346;2023-02-08T03:48:52;2.50;49.30
1614;DHT22;800;48.824;9.346;2023-02-08T03:51:20;2.40;49.80
1614;DHT22;800;48.824;9.346;2023-02-08T03:53:48;2.50;50.00
1614;DHT22;800;48.824;9.346;2023-02-08T03:56:21;2.40;49.70
1614;DHT22;800;48.824;9.346;2023-02-08T03:58:59;2.50;49.50
1614;DHT22;800;48.824;9.346;2023-02-08T04:01:29;2.50;49.40
1614;DHT22;800;48.824;9.346;2023-02-08T04:03:57;2.40;49.40
1614;DHT22;800;48.824;9.346;2023-02-08T04:06:23;2.30;49.30
1614;DHT22;800;48.824;9.346;2023-02-08T04:08:49;2.40;49.40
1614;DHT22;800;48.824;9.346;2023-02-08T04:11:15;2.40;49.30
1614;DHT22;800;48.824;9.346;2023-02-08T04:13:41;2.40;49.20
1614;DHT22;800;48.824;9.346;2023-02-08T04:16:09;2.40;49.10
1614;DHT22;800;48.824;9.346;2023-02-08T04:18:35;2.40;49.10
1614;DHT22;800;48.824;9.346;2023-02-08T04:21:01;2.30;49.20
1614;DHT22;800;48.824;9.346;2023-02-08T04:23:26;2.30;49.80
1614;DHT22;800;48.824;9.346;2023-02-08T04:25:52;2.30;49.40
1614;DHT22;800;48.824;9.346;2023-02-08T04:28:17;2.30;49.60
1614;DHT22;800;48.824;9.346;2023-02-08T04:30:43;2.30;49.60
1614;DHT22;800;48.824;9.346;2023-02-08T04:33:08;2.20;49.60
1614;DHT22;800;48.824;9.346;2023-02-08T04:35:35;2.30;49.70
1614;DHT22;800;48.824;9.346;2023-02-08T04:38:01;2.20;49.50
1614;DHT22;800;48.824;9.346;2023-02-08T04:40:26;2.20;49.50
1614;DHT22;800;48.824;9.346;2023-02-08T04:42:52;2.20;49.40
1614;DHT22;800;48.824;9.346;2023-02-08T04:45:18;2.20;49.40
1614;DHT22;800;48.824;9.346;2023-02-08T04:47:43;2.20;49.40
1614;DHT22;800;48.824;9.346;2023-02-08T04:50:09;2.20;49.20
1614;DHT22;800;48.824;9.346;2023-02-08T04:52:34;2.20;49.00
1614;DHT22;800;48.824;9.346;2023-02-08T04:55:00;2.10;49.00
1614;DHT22;800;48.824;9.346;2023-02-08T04:57:25;2.10;49.10
1614;DHT22;800;48.824;9.346;2023-02-08T04:59:51;2.10;49.40
1614;DHT22;800;48.824;9.346;2023-02-08T05:02:16;2.10;49.30
1614;DHT22;800;48.824;9.346;2023-02-08T05:04:42;2.20;49.50
1614;DHT22;800;48.824;9.346;2023-02-08T05:07:07;2.00;49.30
1614;DHT22;800;48.824;9.346;2023-02-08T05:09:33;2.00;49.40
1614;DHT22;800;48.824;9.346;2023-02-08T05:11:59;2.10;49.40
1614;DHT22;800;48.824;9.346;2023-02-08T05:14:24;2.00;49.10
1614;DHT22;800;48.824;9.346;2023-02-08T05:16:50;2.10;49.30
1614;DHT22;800;48.824;9.346;2023-02-08T05:19:16;2.00;49.10
1614;DHT22;800;48.824;9.346;2023-02-08T05:21:41;2.00;49.10
1614;DHT22;800;48.824;9.346;2023-02-08T05:24:07;2.00;49.00
1614;DHT22;800;48.824;9.346;2023-02-08T05:26:37;1.90;48.90
1614;DHT22;800;48.824;9.346;2023-02-08T05:29:03;2.00;49.00
1614;DHT22;800;48.824;9.346;2023-02-08T05:31:29;1.90;48.90
1614;DHT22;800;48.824;9.346;2023-02-08T05:33:54;1.80;48.80
1614;DHT22;800;48.824;9.346;2023-02-08T05:36:21;1.70;49.00
1614;DHT22;800;48.824;9.346;2023-02-08T05:38:47;1.70;49.30
1614;DHT22;800;48.824;9.346;2023-02-08T05:41:13;1.70;49.20
1614;DHT22;800;48.824;9.346;2023-02-08T05:43:39;1.70;49.30
1614;DHT22;800;48.824;9.346;2023-02-08T05:46:04;1.70;49.50
1614;DHT22;800;48.824;9.346;2023-02-08T05:48:31;1.70;49.50
1614;DHT22;800;48.824;9.346;2023-02-08T05:50:57;1.70;49.60
1614;DHT22;800;48.824;9.346;2023-02-08T05:53:24;1.70;49.80
1614;DHT22;800;48.824;9.346;2023-02-08T05:55:49;1.70;49.80
1614;DHT22;800;48.824;9.346;2023-02-08T05:58:15;1.60;50.20
1614;DHT22;800;48.824;9.346;2023-02-08T06:00:41;1.20;50.70
1614;DHT22;800;48.824;9.346;2023-02-08T06:03:07;1.00;52.00
1614;DHT22;800;48.824;9.346;2023-02-08T06:05:36;1.10;52.10
1614;DHT22;800;48.824;9.346;2023-02-08T06:08:02;1.40;51.80
1614;DHT22;800;48.824;9.346;2023-02-08T06:10:28;1.40;51.20
1614;DHT22;800;48.824;9.346;2023-02-08T06:12:53;1.50;50.70
1614;DHT22;800;48.824;9.346;2023-02-08T06:15:19;1.50;50.40
1614;DHT22;800;48.824;9.346;2023-02-08T06:17:44;1.50;50.10
1614;DHT22;800;48.824;9.346;2023-02-08T06:20:10;1.50;50.00
1614;DHT22;800;48.824;9.346;2023-02-08T06:22:36;1.50;49.90
1614;DHT22;800;48.824;9.346;2023-02-08T06:25:02;1.70;53.40
1614;DHT22;800;48.824;9.346;2023-02-08T06:27:28;2.30;58.10
1614;DHT22;800;48.824;9.346;2023-02-08T06:29:53;2.90;55.60
1614;DHT22;800;48.824;9.346;2023-02-08T06:32:19;3.30;53.60
1614;DHT22;800;48.824;9.346;2023-02-08T06:34:44;3.60;51.20
1614;DHT22;800;48.824;9.346;2023-02-08T06:37:12;3.70;48.40
1614;DHT22;800;48.824;9.346;2023-02-08T06:39:38;3.70;47.50
1614;DHT22;800;48.824;9.346;2023-02-08T06:42:03;3.70;45.80
1614;DHT22;800;48.824;9.346;2023-02-08T06:44:29;3.50;45.40
1614;DHT22;800;48.824;9.346;2023-02-08T06:46:55;3.20;44.90
1614;DHT22;800;48.824;9.346;2023-02-08T06:49:20;3.00;45.30
1614;DHT22;800;48.824;9.346;2023-02-08T06:51:46;2.80;45.60
1614;DHT22;800;48.824;9.346;2023-02-08T06:54:11;2.60;45.80
1614;DHT22;800;48.824;9.346;2023-02-08T06:56:37;2.40;46.30
1614;DHT22;800;48.824;9.346;2023-02-08T06:59:02;2.20;46.80
1614;DHT22;800;48.824;9.346;2023-02-08T07:01:28;2.20;47.10
1614;DHT22;800;48.824;9.346;2023-02-08T07:03:53;2.30;47.30
1614;DHT22;800;48.824;9.346;2023-02-08T07:06:19;2.50;47.30
1614;DHT22;800;48.824;9.346;2023-02-08T07:08:46;2.70;47.10
1614;DHT22;800;48.824;9.346;2023-02-08T07:11:14;2.90;47.10
1614;DHT22;800;48.824;9.346;2023-02-08T07:13:40;3.10;47.10
1614;DHT22;800;48.824;9.346;2023-02-08T07:16:07;3.30;47.10
1614;DHT22;800;48.824;9.346;2023-02-08T07:18:33;3.70;46.70
1614;DHT22;800;48.824;9.346;2023-02-08T07:20:59;4.20;45.90
1614;DHT22;800;48.824;9.346;2023-02-08T07:23:25;4.60;44.70
1614;DHT22;800;48.824;9.346;2023-02-08T07:26:03;4.90;43.90
1614;DHT22;800;48.824;9.346;2023-02-08T07:28:29;5.20;43.20
1614;DHT22;800;48.824;9.346;2023-02-08T07:30:55;5.30;42.70
1614;DHT22;800;48.824;9.346;2023-02-08T07:33:22;5.50;42.60
1614;DHT22;800;48.824;9.346;2023-02-08T07:35:48;5.60;42.20
1614;DHT22;800;48.824;9.346;2023-02-08T07:38:14;5.70;42.00
1614;DHT22;800;48.824;9.346;2023-02-08T07:40:39;5.70;41.70
1614;DHT22;800;48.824;9.346;2023-02-08T07:43:05;5.80;41.70
1614;DHT22;800;48.824;9.346;2023-02-08T07:45:37;5.90;41.60
1614;DHT22;800;48.824;9.346;2023-02-08T07:48:04;5.90;41.50
1614;DHT22;800;48.824;9.346;2023-02-08T07:50:29;5.90;41.50
1614;DHT22;800;48.824;9.346;2023-02-08T07:52:55;5.90;41.50
1614;DHT22;800;48.824;9.346;2023-02-08T07:55:20;5.90;41.60
1614;DHT22;800;48.824;9.346;2023-02-08T07:57:47;5.90;41.60
1614;DHT22;800;48.824;9.346;2023-02-08T08:00:14;5.80;41.70
1614;DHT22;800;48.824;9.346;2023-02-08T08:02:41;5.80;42.00
1614;DHT22;800;48.824;9.346;2023-02-08T08:05:07;5.80;42.20
1614;DHT22;800;48.824;9.346;2023-02-08T08:07:33;5.80;42.40
1614;DHT22;800;48.824;9.346;2023-02-08T08:09:59;5.80;42.70
1614;DHT22;800;48.824;9.346;2023-02-08T08:12:24;5.70;42.80
1614;DHT22;800;48.824;9.346;2023-02-08T08:14:50;5.70;43.00
1614;DHT22;800;48.824;9.346;2023-02-08T08:17:18;5.70;43.50
1614;DHT22;800;48.824;9.346;2023-02-08T08:19:44;5.70;44.10
1614;DHT22;800;48.824;9.346;2023-02-08T08:22:10;5.80;43.60
1614;DHT22;800;48.824;9.346;2023-02-08T08:24:35;5.80;43.50
1614;DHT22;800;48.824;9.346;2023-02-08T08:27:02;5.80;43.70
1614;DHT22;800;48.824;9.346;2023-02-08T08:29:30;5.80;43.70
1614;DHT22;800;48.824;9.346;2023-02-08T08:31:56;5.80;43.30
1614;DHT22;800;48.824;9.346;2023-02-08T08:34:22;5.80;43.50
1614;DHT22;800;48.824;9.346;2023-02-08T08:36:57;5.80;43.60
1614;DHT22;800;48.824;9.346;2023-02-08T08:39:23;5.80;43.80
1614;DHT22;800;48.824;9.346;2023-02-08T08:41:49;5.70;44.10
1614;DHT22;800;48.824;9.346;2023-02-08T08:44:14;5.60;44.00
1614;DHT22;800;48.824;9.346;2023-02-08T08:46:40;5.60;43.90
1614;DHT22;800;48.824;9.346;2023-02-08T08:49:06;5.50;45.60
1614;DHT22;800;48.824;9.346;2023-02-08T08:51:31;5.40;45.20
1614;DHT22;800;48.824;9.346;2023-02-08T08:54:00;5.40;45.30
1614;DHT22;800;48.824;9.346;2023-02-08T08:56:26;5.40;46.00
1614;DHT22;800;48.824;9.346;2023-02-08T08:58:52;5.50;46.30
1614;DHT22;800;48.824;9.346;2023-02-08T09:01:17;5.50;45.70
1614;DHT22;800;48.824;9.346;2023-02-08T09:03:43;5.60;45.50
1614;DHT22;800;48.824;9.346;2023-02-08T09:06:08;5.70;45.30
1614;DHT22;800;48.824;9.346;2023-02-08T09:08:34;5.80;44.50
1614;DHT22;800;48.824;9.346;2023-02-08T09:11:04;5.80;42.70
1614;DHT22;800;48.824;9.346;2023-02-08T09:13:30;5.90;41.30
1614;DHT22;800;48.824;9.346;2023-02-08T09:15:55;5.90;40.50
1614;DHT22;800;48.824;9.346;2023-02-08T09:18:21;6.00;40.50
1614;DHT22;800;48.824;9.346;2023-02-08T09:20:47;5.90;40.00
1614;DHT22;800;48.824;9.346;2023-02-08T09:23:12;5.80;40.40
1614;DHT22;800;48.824;9.346;2023-02-08T09:25:39;5.80;40.10
1614;DHT22;800;48.824;9.346;2023-02-08T09:28:04;5.90;40.30
1614;DHT22;800;48.824;9.346;2023-02-08T09:30:30;6.00;40.10
1614;DHT22;800;48.824;9.346;2023-02-08T09:32:56;6.30;40.30
1614;DHT22;800;48.824;9.346;2023-02-08T09:35:22;6.50;40.40
1614;DHT22;800;48.824;9.346;2023-02-08T09:37:47;6.70;40.20
1614;DHT22;800;48.824;9.346;2023-02-08T09:40:24;6.80;39.60
1614;DHT22;800;48.824;9.346;2023-02-08T09:43:17;7.10;38.60
1614;DHT22;800;48.824;9.346;2023-02-08T09:45:49;7.30;38.10
1614;DHT22;800;48.824;9.346;2023-02-08T09:48:22;7.70;38.40
1614;DHT22;800;48.824;9.346;2023-02-08T09:51:03;7.90;37.70
1614;DHT22;800;48.824;9.346;2023-02-08T09:53:36;8.10;36.70
1614;DHT22;800;48.824;9.346;2023-02-08T09:56:08;8.20;35.70
1614;DHT22;800;48.824;9.346;2023-02-08T09:58:46;8.10;35.40
1614;DHT22;800;48.824;9.346;2023-02-08T10:01:29;8.10;35.20
1614;DHT22;800;48.824;9.346;2023-02-08T10:04:11;8.40;35.90
1614;DHT22;800;48.824;9.346;2023-02-08T10:06:38;8.80;35.30
1614;DHT22;800;48.824;9.346;2023-02-08T10:09:06;9.00;34.80
1614;DHT22;800;48.824;9.346;2023-02-08T10:15:08;9.30;34.50
1614;DHT22;800;48.824;9.346;2023-02-08T10:37:20;10.70;30.40
1614;DHT22;800;48.824;9.346;2023-02-08T10:39:50;10.80;30.20
1614;DHT22;800;48.824;9.346;2023-02-08T10:42:22;11.00;30.20
1614;DHT22;800;48.824;9.346;2023-02-08T10:45:13;11.10;30.50
1614;DHT22;800;48.824;9.346;2023-02-08T10:47:52;11.10;29.40
1614;DHT22;800;48.824;9.346;2023-02-08T10:52:50;11.30;29.80
1614;DHT22;800;48.824;9.346;2023-02-08T10:55:18;11.00;29.20
1614;DHT22;800;48.824;9.346;2023-02-08T10:57:45;11.00;29.50
1614;DHT22;800;48.824;9.346;2023-02-08T11:00:20;11.00;29.80
1614;DHT22;800;48.824;9.346;2023-02-08T11:02:46;11.10;30.00
1614;DHT22;800;48.824;9.346;2023-02-08T11:05:18;11.50;30.10
1614;DHT22;800;48.824;9.346;2023-02-08T11:07:45;11.70;30.60
1614;DHT22;800;48.824;9.346;2023-02-08T11:13:16;12.30;30.00
1614;DHT22;800;48.824;9.346;2023-02-08T11:15:55;12.40;29.00
1614;DHT22;800;48.824;9.346;2023-02-08T11:18:36;12.50;27.70
1614;DHT22;800;48.824;9.346;2023-02-08T11:21:07;12.40;28.20
1614;DHT22;800;48.824;9.346;2023-02-08T11:23:38;12.20;27.40
1614;DHT22;800;48.824;9.346;2023-02-08T11:28:42;12.50;28.00
1614;DHT22;800;48.824;9.346;2023-02-08T11:31:17;12.10;27.70
1614;DHT22;800;48.824;9.346;2023-02-08T11:36:26;12.00;27.60
1614;DHT22;800;48.824;9.346;2023-02-08T11:38:52;12.00;27.90
1614;DHT22;800;48.824;9.346;2023-02-08T11:41:19;12.10;27.80
1614;DHT22;800;48.824;9.346;2023-02-08T11:44:03;12.20;28.00
1614;DHT22;800;48.824;9.346;2023-02-08T11:46:32;12.40;28.30
1614;DHT22;800;48.824;9.346;2023-02-08T11:48:59;12.30;27.70
1614;DHT22;800;48.824;9.346;2023-02-08T11:51:33;12.50;27.90
1614;DHT22;800;48.824;9.346;2023-02-08T11:54:00;12.40;27.80
1614;DHT22;800;48.824;9.346;2023-02-08T11:56:31;12.60;27.50
1614;DHT22;800;48.824;9.346;2023-02-08T11:59:21;12.70;27.20
1614;DHT22;800;48.824;9.346;2023-02-08T12:01:48;12.40;27.70
1614;DHT22;800;48.824;9.346;2023-02-08T12:04:15;12.30;27.60
1614;DHT22;800;48.824;9.346;2023-02-08T12:14:43;11.90;27.90
1614;DHT22;800;48.824;9.346;2023-02-08T12:26:19;11.70;27.90
1614;DHT22;800;48.824;9.346;2023-02-08T12:40:37;11.70;28.20
1614;DHT22;800;48.824;9.346;2023-02-08T12:46:32;11.70;28.60
1614;DHT22;800;48.824;9.346;2023-02-08T12:54:57;12.00;28.00
1614;DHT22;800;48.824;9.346;2023-02-08T12:57:26;12.20;27.60
1614;DHT22;800;48.824;9.346;2023-02-08T13:00:05;12.70;27.90
1614;DHT22;800;48.824;9.346;2023-02-08T13:02:55;12.80;27.40
1614;DHT22;800;48.824;9.346;2023-02-08T13:05:23;12.80;27.30
1614;DHT22;800;48.824;9.346;2023-02-08T13:08:00;12.60;27.10
1614;DHT22;800;48.824;9.346;2023-02-08T13:10:38;12.80;27.30
1614;DHT22;800;48.824;9.346;2023-02-08T13:13:27;12.90;26.90
1614;DHT22;800;48.824;9.346;2023-02-08T13:15:58;12.60;27.30
1614;DHT22;800;48.824;9.346;2023-02-08T13:18:45;12.40;26.80
1614;DHT22;800;48.824;9.346;2023-02-08T13:21:15;12.50;27.40
1614;DHT22;800;48.824;9.346;2023-02-08T13:23:46;12.70;27.40
1614;DHT22;800;48.824;9.346;2023-02-08T13:26:20;12.70;27.30
1614;DHT22;800;48.824;9.346;2023-02-08T13:28:55;12.50;27.50
1614;DHT22;800;48.824;9.346;2023-02-08T13:31:27;12.60;27.90
1614;DHT22;800;48.824;9.346;2023-02-08T13:34:01;12.80;27.90
1614;DHT22;800;48.824;9.346;2023-02-08T13:36:35;13.20;27.60
1614;DHT22;800;48.824;9.346;2023-02-08T13:39:04;13.00;27.00
1614;DHT22;800;48.824;9.346;2023-02-08T13:41:31;12.80;27.00
1614;DHT22;800;48.824;9.346;2023-02-08T13:44:06;12.40;27.50
1614;DHT22;800;48.824;9.346;2023-02-08T13:46:51;12.10;27.60
1614;DHT22;800;48.824;9.346;2023-02-08T13:52:11;12.60;28.40
1614;DHT22;800;48.824;9.346;2023-02-08T14:03:20;12.00;28.30
1614;DHT22;800;48.824;9.346;2023-02-08T14:11:43;11.90;28.90
1614;DHT22;800;48.824;9.346;2023-02-08T14:14:23;11.80;29.40
1614;DHT22;800;48.824;9.346;2023-02-08T14:19:33;12.30;29.10
1614;DHT22;800;48.824;9.346;2023-02-08T14:32:51;12.70;28.90
1614;DHT22;800;48.824;9.346;2023-02-08T14:35:25;12.60;28.80
1614;DHT22;800;48.824;9.346;2023-02-08T14:40:58;12.30;29.10
1614;DHT22;800;48.824;9.346;2023-02-08T14:43:35;12.30;29.20
1614;DHT22;800;48.824;9.346;2023-02-08T14:49:15;12.50;28.70
1614;DHT22;800;48.824;9.346;2023-02-08T14:51:48;12.00;29.10
1614;DHT22;800;48.824;9.346;2023-02-08T14:54:22;11.90;29.20
1614;DHT22;800;48.824;9.346;2023-02-08T14:56:59;12.10;29.20
1614;DHT22;800;48.824;9.346;2023-02-08T14:59:29;12.10;29.20
1614;DHT22;800;48.824;9.346;2023-02-08T15:02:11;11.90;29.30
1614;DHT22;800;48.824;9.346;2023-02-08T15:04:44;11.70;29.90
1614;DHT22;800;48.824;9.346;2023-02-08T15:09:42;11.30;30.30
1614;DHT22;800;48.824;9.346;2023-02-08T15:14:47;10.70;31.00
1614;DHT22;800;48.824;9.346;2023-02-08T15:19:56;11.00;30.50
1614;DHT22;800;48.824;9.346;2023-02-08T15:24:56;11.10;30.60
1614;DHT22;800;48.824;9.346;2023-02-08T15:27:31;11.20;30.60
1614;DHT22;800;48.824;9.346;2023-02-08T15:29:58;11.50;30.40
1614;DHT22;800;48.824;9.346;2023-02-08T15:32:25;11.50;29.90
1614;DHT22;800;48.824;9.346;2023-02-08T15:34:57;11.40;29.80
1614;DHT22;800;48.824;9.346;2023-02-08T15:37:23;11.30;30.00
1614;DHT22;800;48.824;9.346;2023-02-08T15:39:54;11.20;30.10
1614;DHT22;800;48.824;9.346;2023-02-08T15:42:23;11.30;30.00
1614;DHT22;800;48.824;9.346;2023-02-08T15:44:49;11.20;30.00
1614;DHT22;800;48.824;9.346;2023-02-08T15:47:18;11.00;30.20
1614;DHT22;800;48.824;9.346;2023-02-08T15:49:48;11.00;30.40
1614;DHT22;800;48.824;9.346;2023-02-08T15:52:17;10.80;30.80
1614;DHT22;800;48.824;9.346;2023-02-08T15:54:44;10.70;30.80
1614;DHT22;800;48.824;9.346;2023-02-08T15:57:38;10.40;30.90
1614;DHT22;800;48.824;9.346;2023-02-08T16:00:17;10.30;31.60
1614;DHT22;800;48.824;9.346;2023-02-08T16:02:48;10.10;31.90
1614;DHT22;800;48.824;9.346;2023-02-08T16:05:23;10.20;32.00
1614;DHT22;800;48.824;9.346;2023-02-08T16:07:49;9.90;33.10
1614;DHT22;800;48.824;9.346;2023-02-08T16:10:33;9.50;33.40
1614;DHT22;800;48.824;9.346;2023-02-08T16:13:03;9.30;33.80
1614;DHT22;800;48.824;9.346;2023-02-08T16:15:47;9.40;34.00
1614;DHT22;800;48.824;9.346;2023-02-08T16:26:30;9.20;34.30
1614;DHT22;800;48.824;9.346;2023-02-08T16:31:44;9.40;34.10
1614;DHT22;800;48.824;9.346;2023-02-08T16:34:15;9.30;33.90
1614;DHT22;800;48.824;9.346;2023-02-08T16:36:44;9.30;34.10
1614;DHT22;800;48.824;9.346;2023-02-08T16:44:24;8.90;34.60
1614;DHT22;800;48.824;9.346;2023-02-08T16:46:51;8.90;34.80
1614;DHT22;800;48.824;9.346;2023-02-08T16:49:17;8.80;34.80
1614;DHT22;800;48.824;9.346;2023-02-08T16:51:42;8.80;35.00
1614;DHT22;800;48.824;9.346;2023-02-08T16:54:18;8.90;35.00
1614;DHT22;800;48.824;9.346;2023-02-08T16:56:45;8.70;34.80
1614;DHT22;800;48.824;9.346;2023-02-08T16:59:12;8.70;35.30
1614;DHT22;800;48.824;9.346;2023-02-08T17:01:38;8.60;35.50
1614;DHT22;800;48.824;9.346;2023-02-08T17:04:04;8.50;35.60
1614;DHT22;800;48.824;9.346;2023-02-08T17:06:32;8.50;35.60
1614;DHT22;800;48.824;9.346;2023-02-08T17:09:00;8.50;35.80
1614;DHT22;800;48.824;9.346;2023-02-08T17:11:26;8.20;36.20
1614;DHT22;800;48.824;9.346;2023-02-08T17:13:52;8.10;36.70
1614;DHT22;800;48.824;9.346;2023-02-08T17:16:21;8.20;36.60
1614;DHT22;800;48.824;9.346;2023-02-08T17:18:48;8.30;36.50
1614;DHT22;800;48.824;9.346;2023-02-08T17:21:14;8.40;36.30
1614;DHT22;800;48.824;9.346;2023-02-08T17:23:41;8.50;36.20
1614;DHT22;800;48.824;9.346;2023-02-08T17:26:24;8.50;36.10
1614;DHT22;800;48.824;9.346;2023-02-08T17:28:54;8.40;36.20
1614;DHT22;800;48.824;9.346;2023-02-08T17:31:21;8.40;36.20
1614;DHT22;800;48.824;9.346;2023-02-08T17:33:47;8.30;36.20
1614;DHT22;800;48.824;9.346;2023-02-08T17:36:15;8.30;36.30
1614;DHT22;800;48.824;9.346;2023-02-08T17:38:42;8.30;36.40
1614;DHT22;800;48.824;9.346;2023-02-08T17:41:16;8.20;36.50
1614;DHT22;800;48.824;9.346;2023-02-08T17:43:43;8.20;36.50
1614;DHT22;800;48.824;9.346;2023-02-08T17:46:15;8.30;36.60
1614;DHT22;800;48.824;9.346;2023-02-08T17:48:41;8.10;36.80
1614;DHT22;800;48.824;9.346;2023-02-08T17:51:12;8.10;37.00
1614;DHT22;800;48.824;9.346;2023-02-08T17:53:38;8.00;36.90
1614;DHT22;800;48.824;9.346;2023-02-08T17:56:10;7.80;37.20
1614;DHT22;800;48.824;9.346;2023-02-08T17:58:40;7.80;37.60
1614;DHT22;800;48.824;9.346;2023-02-08T18:01:07;7.80;37.50
1614;DHT22;800;48.824;9.346;2023-02-08T18:03:34;7.70;37.60
1614;DHT22;800;48.824;9.346;2023-02-08T18:06:00;7.70;37.80
1614;DHT22;800;48.824;9.346;2023-02-08T18:08:26;7.70;37.80
1614;DHT22;800;48.824;9.346;2023-02-08T18:10:52;7.50;37.70
1614;DHT22;800;48.824;9.346;2023-02-08T18:13:18;7.40;38.10
1614;DHT22;800;48.824;9.346;2023-02-08T18:15:45;7.50;38.20
1614;DHT22;800;48.824;9.346;2023-02-08T18:18:11;7.60;38.00
1614;DHT22;800;48.824;9.346;2023-02-08T18:20:41;7.70;37.80
1614;DHT22;800;48.824;9.346;2023-02-08T18:23:06;7.60;37.90
1614;DHT22;800;48.824;9.346;2023-02-08T18:25:32;7.40;38.20
1614;DHT22;800;48.824;9.346;2023-02-08T18:27:57;7.30;38.30
1614;DHT22;800;48.824;9.346;2023-02-08T18:30:23;7.10;38.50
1614;DHT22;800;48.824;9.346;2023-02-08T18:32:50;7.10;38.60
1614;DHT22;800;48.824;9.346;2023-02-08T18:35:16;7.20;38.70
1614;DHT22;800;48.824;9.346;2023-02-08T18:37:41;7.10;38.40
1614;DHT22;800;48.824;9.346;2023-02-08T18:40:08;7.20;38.30
1614;DHT22;800;48.824;9.346;2023-02-08T18:42:33;7.30;38.20
1614;DHT22;800;48.824;9.346;2023-02-08T18:44:59;7.10;38.10
1614;DHT22;800;48.824;9.346;2023-02-08T18:47:25;7.10;38.50
1614;DHT22;800;48.824;9.346;2023-02-08T18:49:54;7.20;38.50
1614;DHT22;800;48.824;9.346;2023-02-08T18:52:20;7.10;38.60
1614;DHT22;800;48.824;9.346;2023-02-08T18:54:48;7.10;38.50
1614;DHT22;800;48.824;9.346;2023-02-08T18:57:14;7.00;38.60
1614;DHT22;800;48.824;9.346;2023-02-08T18:59:40;7.10;38.60
1614;DHT22;800;48.824;9.346;2023-02-08T19:02:07;7.20;38.70
1614;DHT22;800;48.824;9.346;2023-02-08T19:04:39;7.20;38.50
1614;DHT22;800;48.824;9.346;2023-02-08T19:07:05;7.10;38.30
1614;DHT22;800;48.824;9.346;2023-02-08T19:09:34;6.90;38.70
1614;DHT22;800;48.824;9.346;2023-02-08T19:12:00;6.70;39.40
1614;DHT22;800;48.824;9.346;2023-02-08T19:14:26;6.70;39.70
1614;DHT22;800;48.824;9.346;2023-02-08T19:16:51;6.80;39.60
1614;DHT22;800;48.824;9.346;2023-02-08T19:19:17;6.80;39.50
1614;DHT22;800;48.824;9.346;2023-02-08T19:21:42;6.90;39.50
1614;DHT22;800;48.824;9.346;2023-02-08T19:24:10;6.90;39.50
1614;DHT22;800;48.824;9.346;2023-02-08T19:26:37;6.80;39.50
1614;DHT22;800;48.824;9.346;2023-02-08T19:29:09;6.80;39.70
1614;DHT22;800;48.824;9.346;2023-02-08T19:31:36;6.70;39.70
1614;DHT22;800;48.824;9.346;2023-02-08T19:34:03;6.70;39.80
1614;DHT22;800;48.824;9.346;2023-02-08T19:36:33;6.70;39.90
1614;DHT22;800;48.824;9.346;2023-02-08T19:38:59;6.60;39.90